Flight Track Log - Related Links

Times and Time Zones

All times are in EST time to prevent confusion due to time zone crossing. See the LYM613 flight status page for this flight to view local times or setup timezone preferences in your user account.

Time Position Orientation Groundspeed Altitude Reporting Facility
EST Latitude Longitude Course Direction KTS MPH feet Rate Location/Type
Thu 06:20:49 PM 39.5261 -107.7403 123° Southeast 2 2 5,500  Level Denver Center
Thu 06:21:51 PM 39.5261 -107.7403 123° Southeast 1 1 5,500 532 Level Denver Center
Thu 06:22:53 PM 39.5250 -107.6917 92° East 101 116 6,600 1,984 Climbing Denver Center
Thu 06:23:55 PM 39.5147 -107.5942 98° East 187 215 9,600 2,661 Climbing Denver Center
Thu 06:24:57 PM 39.5097 -107.4953 94° East 257 296 12,100 2,177 Climbing Denver Center
Thu 06:25:00 PM 39.5438 -107.0238 105° East  Level Estimated
Thu 06:25:59 PM 39.4969 -107.3950 99° East 286 329 14,100  Level Denver Center
Thu 06:27:01 PM 39.4828 -107.2669 98° East 315 362 16,300 2,032 Climbing Denver Center
Thu 06:28:03 PM 39.4686 -107.1531 99° East 330 380 18,300 1,306 Climbing Denver Center
Thu 06:29:05 PM 39.4531 -107.0128 98° East 356 410 19,000 339 Climbing Denver Center
Thu 06:30:07 PM 39.4356 -106.8794 100° East 386 444 19,000  Level Denver Center
Thu 06:31:09 PM 39.4042 -106.7256 105° East 409 471 19,000  Level Denver Center
Thu 06:32:11 PM 39.3739 -106.5811 105° East 414 476 19,000  Level Denver Center
Thu 06:33:14 PM 39.3436 -106.4392 105° East 411 473 19,000  Level Denver Center
Thu 06:34:16 PM 39.3133 -106.2983 105° East 408 470 19,000  Level Denver Center
Thu 06:35:18 PM 39.2778 -106.1372 106° East 406 467 19,000  Level Denver Center
Thu 06:36:20 PM 39.2492 -105.9964 105° East 406 467 19,000  Level Denver Center
Thu 06:37:22 PM 39.2186 -105.8586 106° East 402 463 19,000  Level Denver Center
Thu 06:38:24 PM 39.1589 -105.7403 123° Southeast 404 465 19,000  Level Denver Center
Thu 06:39:26 PM 39.0922 -105.6203 126° Southeast 399 459 19,000  Level Denver Center
Thu 06:40:28 PM 39.0736 -105.4739 99° East 406 467 19,000 -194 Level Denver Center
Thu 06:41:30 PM 39.1608 -105.3869 38° Northeast 394 453 18,600 -871 Descending Denver Center
Thu 06:42:32 PM 39.2442 -105.3142 34° Northeast 363 418 17,200 -1,306 Descending Denver Center
Thu 06:43:34 PM 39.3111 -105.2350 42° Northeast 324 373 15,900 -1,645 Descending Denver Center
Thu 06:44:36 PM 39.3825 -105.1581 40° Northeast 312 359 13,800 -1,935 Descending Denver Center
Thu 06:45:38 PM 39.4492 -105.0861 40° Northeast 310 357 11,900 -1,887 Descending Denver Center
Thu 06:46:40 PM 39.5189 -105.0114 40° Northeast 304 350 9,900 -1,694 Descending Denver Center
Thu 06:47:42 PM 39.5800 -104.9531 36° Northeast 279 321 8,400 -1,113 Descending Denver Center
Thu 06:48:44 PM 39.6433 -104.9336 13° North 225 259 7,600 -726 Descending Denver Center
Thu 06:49:46 PM 39.6400 -104.8683 94° East 186 214 6,900 -726 Descending Denver Center
Thu 06:50:48 PM 39.6008 -104.8522 162° South 140 161 6,100 -532 Descending Denver Center
Thu 06:51:50 PM 39.5731 -104.8503 177° South 122 140 5,800 -290 Descending Denver Center
Thu 06:53:00 PM 39.5701 -104.8493 67° East  Level Estimated
Thu 07:00:00 PM 39.5701 -104.8493 237° Southwest  Level Estimated
Thu 07:01:00 PM 39.5701 -104.8493 237° Southwest  Level Estimated

Login

Don't have an account? Register now (free) for customized features, flight alerts, and more!